Flight Track Log - Related Links

Times and Time Zones

All times are in EDT time to prevent confusion due to time zone crossing. See the GPD157 flight status page for this flight to view local times or setup timezone preferences in your user account.

Time Position Orientation Groundspeed Altitude Reporting Facility
EDT Latitude Longitude Course Direction KTS MPH feet Rate Location/Type
Sun 09:23:12 AM 41.4531 -90.4031 90° East 218 251 4,000  Level Chicago Center
Sun 09:24:13 AM 41.4569 -90.3114 87° East 238 274 6,200 2,439 Climbing Chicago Center
Sun 09:25:15 AM 41.4639 -90.2042 85° East 284 327 9,000 2,806 Climbing Chicago Center
Sun 09:26:17 AM 41.4692 -90.0986 86° East 285 328 12,000 2,683 Climbing Chicago Center
Sun 09:27:18 AM 41.4739 -89.9928 87° East 286 329 14,500 2,195 Climbing Chicago Center
Sun 09:28:00 AM 41.4833 -89.7158 90° East  Level FlightAware Approximate
Sun 09:28:20 AM 41.4808 -89.8725 86° East 308 354 16,500  Level Chicago Center
Sun 09:29:22 AM 41.4858 -89.7539 87° East 318 366 18,700 2,274 Climbing Chicago Center
Sun 09:30:24 AM 41.4936 -89.6114 86° East 320 368 21,200 2,293 Climbing Chicago Center
Sun 09:31:25 AM 41.4983 -89.4975 87° East 307 353 23,400 2,098 Climbing Chicago Center
Sun 09:32:27 AM 41.5044 -89.3833 86° East 307 353 25,500 1,935 Climbing Chicago Center
Sun 09:33:29 AM 41.5097 -89.2736 86° East 299 344 27,400 1,597 Climbing Chicago Center
Sun 09:34:31 AM 41.5119 -89.1692 88° East 298 343 28,800 1,548 Climbing Chicago Center
Sun 09:35:33 AM 41.5183 -89.0294 86° East 315 362 30,600 1,597 Climbing Chicago Center
Sun 09:36:35 AM 41.5233 -88.9119 87° East 319 367 32,100 1,171 Climbing Chicago Center
Sun 09:37:36 AM 41.5281 -88.7922 87° East 324 373 33,000 878 Climbing Chicago Center
Sun 09:38:38 AM 41.5331 -88.6614 87° East 349 402 33,900 871 Climbing Chicago Center
Sun 09:39:40 AM 41.5383 -88.5242 87° East 367 422 34,800 871 Climbing Chicago Center
Sun 09:40:42 AM 41.5444 -88.3847 87° East 376 433 35,700 968 Climbing Chicago Center
Sun 09:41:44 AM 41.5597 -88.2133 83° East 385 443 36,800 1,016 Climbing Chicago Center
Sun 09:42:46 AM 41.5750 -88.0653 82° East 396 456 37,800 968 Climbing Chicago Center
Sun 09:43:48 AM 41.5911 -87.9175 82° East 397 457 38,800 968 Climbing Chicago Center
Sun 09:44:50 AM 41.6058 -87.7722 82° East 394 453 39,800 976 Climbing Chicago Center
Sun 09:45:51 AM 41.6206 -87.6275 82° East 393 452 40,800 976 Climbing Chicago Center
Sun 09:46:53 AM 41.6350 -87.4819 82° East 397 457 41,800 968 Climbing Chicago Center
Sun 09:47:55 AM 41.6500 -87.3386 82° East 393 452 42,800 1,065 Climbing Chicago Center
Sun 09:48:57 AM 41.6678 -87.1675 82° East 389 448 44,000 1,016 Climbing Chicago Center
Sun 09:49:59 AM 41.6819 -87.0289 82° East 379 436 44,900 484 Climbing Chicago Center
Sun 09:51:01 AM 41.6950 -86.8883 83° East 382 440 45,000 48 Climbing Chicago Center
Sun 09:52:03 AM 41.7094 -86.7422 82° East 395 455 45,000  Level Chicago Center
Sun 09:53:05 AM 41.7244 -86.5789 83° East 412 474 45,000  Level Chicago Center
Sun 09:54:07 AM 41.7392 -86.4200 83° East 428 493 45,000  Level Chicago Center
Sun 09:55:09 AM 41.7547 -86.2569 83° East 440 506 45,000  Level Chicago Center
Sun 09:56:11 AM 41.7700 -86.0933 83° East 444 511 45,000  Level Chicago Center
Sun 09:57:13 AM 41.7853 -85.9297 83° East 442 509 45,000  Level Chicago Center
Sun 09:58:14 AM 41.8028 -85.7319 83° East 443 510 45,000  Level Chicago Center
Sun 09:59:16 AM 41.8178 -85.5644 83° East 448 516 45,000  Level Chicago Center
Sun 10:00:18 AM 41.8336 -85.3964 83° East 454 522 45,000  Level Chicago Center
Sun 10:01:21 AM 41.8467 -85.2283 84° East 450 518 45,000  Level Chicago Center
Sun 10:02:23 AM 41.8597 -85.0622 84° East 446 513 45,000  Level Chicago Center
Sun 10:03:25 AM 41.8742 -84.8928 83° East 458 527 45,000  Level Chicago Center
Sun 10:04:27 AM 41.8867 -84.7269 84° East 448 516 45,000  Level Chicago Center
Sun 10:05:29 AM 41.9056 -84.5622 81° East 447 514 45,000  Level Chicago Center
Sun 10:06:31 AM 41.9261 -84.3631 82° East 449 517 45,000  Level Chicago Center
Sun 10:07:33 AM 41.9447 -84.1989 81° East 448 516 45,000  Level Chicago Center
Sun 10:08:32 AM 41.9556 -84.0486 84° East 443 510 45,000  Level Cleveland Center
Sun 10:09:32 AM 41.9750 -83.8875 81° East 443 510 45,000  Level Cleveland Center
Sun 10:10:32 AM 41.9900 -83.7206 83° East 443 510 45,000  Level Cleveland Center
Sun 10:11:32 AM 42.0117 -83.5372 81° East 443 510 45,000  Level Cleveland Center
Sun 10:12:32 AM 42.0281 -83.3731 82° East 448 516 45,000  Level Cleveland Center
Sun 10:13:32 AM 42.0383 -83.2056 85° East 443 510 45,000  Level Cleveland Center
Sun 10:14:32 AM 42.0567 -83.0386 82° East 443 510 45,000  Level Cleveland Center
Sun 10:15:32 AM 42.0725 -82.8742 83° East 443 510 45,000  Level Cleveland Center
Sun 10:16:32 AM 42.0883 -82.7097 83° East 443 510 45,000  Level Cleveland Center
Sun 10:17:32 AM 42.1036 -82.5450 83° East 443 510 45,000  Level Cleveland Center
Sun 10:18:32 AM 42.1167 -82.3831 84° East 443 510 45,000  Level Cleveland Center
Sun 10:19:32 AM 42.1339 -82.2211 82° East 443 510 45,000  Level Cleveland Center
Sun 10:20:32 AM 42.1506 -82.0592 82° East 443 510 45,000  Level Cleveland Center
Sun 10:21:32 AM 42.1650 -81.8969 83° East 438 504 45,000  Level Cleveland Center
Sun 10:22:32 AM 42.1792 -81.7347 83° East 444 511 45,000  Level Cleveland Center
Sun 10:23:32 AM 42.1914 -81.5697 84° East 444 511 45,000  Level Cleveland Center
Sun 10:24:32 AM 42.2031 -81.4072 84° East 444 511 45,000  Level Cleveland Center
Sun 10:25:32 AM 42.2164 -81.2589 83° East 444 511 45,000  Level Cleveland Center
Sun 10:26:32 AM 42.2297 -81.0936 84° East 444 511 45,000  Level Cleveland Center
Sun 10:27:32 AM 42.2431 -80.9253 84° East 444 511 45,000  Level Cleveland Center
Sun 10:28:32 AM 42.2558 -80.7600 84° East 444 511 45,000  Level Cleveland Center
Sun 10:29:32 AM 42.2664 -80.5944 85° East 444 511 45,000  Level Cleveland Center
Sun 10:30:32 AM 42.2789 -80.4261 84° East 444 511 45,000  Level Cleveland Center
Sun 10:31:32 AM 42.2931 -80.2408 84° East 444 511 45,000  Level Cleveland Center
Sun 10:32:32 AM 42.3028 -80.0722 85° East 444 511 45,000  Level Cleveland Center
Sun 10:33:32 AM 42.3144 -79.9233 84° East 444 511 45,000  Level Cleveland Center
Sun 10:34:32 AM 42.3281 -79.7519 84° East 444 511 45,000  Level Cleveland Center
Sun 10:35:32 AM 42.3369 -79.5775 86° East 444 511 45,000  Level Cleveland Center
Sun 10:36:32 AM 42.3481 -79.4089 85° East 444 511 45,000  Level Cleveland Center
Sun 10:37:32 AM 42.3586 -79.2458 85° East 444 511 45,000  Level Cleveland Center
Sun 10:38:32 AM 42.3692 -79.0769 85° East 444 511 45,000 -200 Level Cleveland Center
Sun 10:39:32 AM 42.3772 -78.9108 86° East 444 511 44,600 -700 Descending Cleveland Center
Sun 10:40:32 AM 42.3894 -78.7447 84° East 444 511 43,600 -1,800 Descending Cleveland Center
Sun 10:41:32 AM 42.3969 -78.5728 87° East 444 511 41,000 -1,000 Descending Cleveland Center
Sun 10:42:32 AM 42.4083 -78.4008 85° East 450 518 41,600 -200 Climbing Cleveland Center
Sun 10:43:32 AM 42.4153 -78.2208 87° East 458 527 40,600 -1,000 Descending Cleveland Center
Sun 10:44:32 AM 42.4258 -78.0403 85° East 471 542 39,600 -1,000 Descending Cleveland Center
Sun 10:45:32 AM 42.4322 -77.8628 87° East 471 542 38,600 -1,000 Descending Cleveland Center
Sun 10:46:32 AM 42.4425 -77.6822 86° East 477 549 37,600 -1,000 Descending Cleveland Center
Sun 10:47:32 AM 42.4503 -77.5017 87° East 482 555 36,600 -1,031 Descending Cleveland Center
Sun 10:49:44 AM 42.4703 -77.0767 86° East 490 564 34,300 -1,063 Descending Boston Center
Sun 10:50:44 AM 42.4775 -76.8969 87° East 485 558 33,200 -650 Descending Boston Center
Sun 10:51:44 AM 42.4844 -76.7172 87° East 480 552 33,000 -100 Descending Boston Center
Sun 10:52:44 AM 42.4911 -76.5375 87° East 475 547 33,000  Level Boston Center
Sun 10:53:44 AM 42.4744 -76.3589 97° East 475 547 33,000 -100 Level Boston Center
Sun 10:54:44 AM 42.4422 -76.2019 105° East 475 547 32,800 -600 Descending Boston Center
Sun 10:55:44 AM 42.4061 -76.0283 106° East 475 547 31,800 -900 Descending Boston Center
Sun 10:56:44 AM 42.3717 -75.8606 105° East 475 547 31,000 -900 Descending Boston Center
Sun 10:57:44 AM 42.3353 -75.6869 106° East 475 547 30,000 -950 Descending Boston Center
Sun 10:58:44 AM 42.2858 -75.5078 110° East 469 540 29,100 -900 Descending Boston Center
Sun 10:59:44 AM 42.2358 -75.3511 113° Southeast 469 540 28,200 -1,250 Descending Boston Center
Sun 11:00:44 AM 42.1836 -75.1944 114° Southeast 458 527 26,600 -1,900 Descending Boston Center
Sun 11:01:44 AM 42.1386 -75.0636 115° Southeast 441 507 24,400 -2,350 Descending Boston Center
Sun 11:02:44 AM 42.0939 -74.9192 113° Southeast 422 486 21,900 -2,650 Descending Boston Center
Sun 11:03:44 AM 42.0431 -74.7661 114° Southeast 417 480 19,100 -2,700 Descending Boston Center
Sun 11:04:44 AM 41.9997 -74.6358 114° Southeast 391 450 16,500 -2,450 Descending Boston Center
Sun 11:05:44 AM 41.9564 -74.5061 114° Southeast 383 441 14,200 -1,400 Descending Boston Center
Sun 11:06:44 AM 41.9189 -74.3875 113° Southeast 363 418 13,700 -950 Descending Boston Center
Sun 11:07:44 AM 41.8811 -74.2719 114° Southeast 348 400 12,300 -1,350 Descending Boston Center
Sun 11:08:44 AM 41.8392 -74.1678 118° Southeast 328 377 11,000 -850 Descending Boston Center
Sun 11:09:44 AM 41.7925 -74.0747 124° Southeast 311 358 10,600 -850 Descending Boston Center
Sun 11:10:44 AM 41.7481 -73.9844 123° Southeast 295 339 9,300 -1,300 Descending Boston Center
Sun 11:11:44 AM 41.7117 -73.9000 120° Southeast 289 333 8,000 -1,600 Descending Boston Center
Sun 11:12:44 AM 41.6564 -73.8211 133° Southeast 263 303 6,100 -816 Descending Boston Center
Sun 11:14:11 AM 41.5500 -73.8333 185° South 277 319 6,000 -367 Descending New York TRACON
Sun 11:15:11 AM 41.4667 -73.8500 189° South 267 307 5,200 -950 Descending New York TRACON
Sun 11:16:11 AM 41.4000 -73.8667 191° South 274 315 4,100 -1,000 Descending New York TRACON
Sun 11:17:11 AM 41.3167 -73.8833 189° South 260 299 3,200 -550 Descending New York TRACON
Sun 11:18:11 AM 41.2667 -73.8667 166° South 207 238 3,000 -100 Descending New York TRACON
Sun 11:19:11 AM 41.2167 -73.8167 143° Southeast 223 257 3,000 -333 Level New York TRACON
Sun 11:20:17 AM 41.1500 -73.7833 159° South 204 235 2,300 -762 Descending New York TRACON
Sun 11:21:17 AM 41.1167 -73.7500 143° Southeast 149 171 1,400 -750 Descending New York TRACON
Sun 11:22:17 AM 41.0833 -73.7167 143° Southeast 119 137 800 -600 Descending New York TRACON
Sun 11:24:00 AM 41.0667 -73.7000 246° West  Level FlightAware Approximate
Sun 11:31:00 AM 41.0669 -73.7076 246° West  Level Estimated

Login

Don't have an account? Register now (free) for customized features, flight alerts, and more!